Time;durP1;ratioP1;P1;durP2;ratioP2;P2;SDS_P1;SDS_P2;PMS_P1;PMS_P2;Temp;Humidity;BMP_temperature;BMP_pressure;BME280_temperature;BME280_humidity;BME280_pressure;Samples;Min_cycle;Max_cycle;Signal;HPM_P1;HPM_P2
2023/06/10 00:03:17;;;;;;;4.93;2.63;;;21.20;1.00;;;;;;20819573;28;20497;-42
2023/06/10 00:13:38;;;;;;;6.63;2.65;;;21.20;1.00;;;;;;20827552;28;20079;-42
2023/06/10 00:24:02;;;;;;;7.47;3.53;;;21.10;1.00;;;;;;20813294;28;20492;-42
2023/06/10 00:34:24;;;;;;;5.20;2.90;;;20.90;1.00;;;;;;20821511;28;20076;-42
2023/06/10 00:44:46;;;;;;;5.15;2.58;;;20.70;1.00;;;;;;20822739;28;20054;-42
2023/06/10 00:55:08;;;;;;;6.47;3.22;;;20.50;1.00;;;;;;20822046;28;21420;-42
2023/06/10 01:05:29;;;;;;;5.88;2.50;;;20.10;1.00;;;;;;20817814;28;20040;-42
2023/06/10 01:15:51;;;;;;;4.00;2.45;;;20.00;1.00;;;;;;20820175;28;20044;-42
2023/06/10 01:26:14;;;;;;;3.95;2.25;;;19.80;1.00;;;;;;20810186;28;20072;-42
2023/06/10 01:36:37;;;;;;;8.07;2.45;;;19.80;1.00;;;;;;20814855;28;20120;-42
2023/06/10 01:46:58;;;;;;;6.32;2.92;;;19.70;1.00;;;;;;20818947;28;20237;-42
2023/06/10 01:57:20;;;;;;;4.43;2.60;;;19.60;1.00;;;;;;20816180;28;20765;-42
2023/06/10 02:07:41;;;;;;;4.70;2.40;;;19.50;1.00;;;;;;20809904;28;20067;-42
2023/06/10 02:18:02;;;;;;;4.57;2.40;;;19.30;1.00;;;;;;20812165;28;20294;-42
2023/06/10 02:28:24;;;;;;;5.22;2.67;;;19.40;1.00;;;;;;20819852;28;20069;-42
2023/06/10 02:38:45;;;;;;;4.70;2.28;;;19.30;1.00;;;;;;20823660;28;20069;-42
2023/06/10 02:49:07;;;;;;;4.68;2.38;;;19.10;1.00;;;;;;20817591;28;20039;-42
2023/06/10 02:59:28;;;;;;;9.63;2.85;;;19.10;1.00;;;;;;20825015;28;21705;-42
2023/06/10 03:09:50;;;;;;;4.63;2.50;;;19.00;1.00;;;;;;20830211;28;20067;-42
2023/06/10 03:20:12;;;;;;;6.03;3.00;;;18.90;1.00;;;;;;20824781;28;20098;-42
2023/06/10 03:30:33;;;;;;;6.43;2.45;;;18.90;1.00;;;;;;20788260;28;1088579;-42
2023/06/10 03:40:55;;;;;;;5.05;2.45;;;18.90;1.00;;;;;;20818234;28;20353;-41
2023/06/10 03:51:16;;;;;;;6.00;3.22;;;18.90;1.00;;;;;;20823597;28;20128;-42
2023/06/10 04:01:40;;;;;;;6.35;2.80;;;18.90;1.00;;;;;;20824505;28;20252;-41
2023/06/10 04:12:02;;;;;;;5.75;2.85;;;18.90;1.00;;;;;;20821783;28;20123;-42
2023/06/10 04:22:24;;;;;;;6.95;2.80;;;18.90;1.00;;;;;;20817221;28;20040;-42
2023/06/10 04:32:46;;;;;;;4.60;2.58;;;18.80;1.00;;;;;;20823020;28;20087;-42
2023/06/10 04:43:08;;;;;;;6.82;2.90;;;18.90;1.00;;;;;;20823958;28;20045;-42
2023/06/10 04:53:29;;;;;;;5.15;2.90;;;18.90;1.00;;;;;;20819994;28;20451;-42
2023/06/10 05:03:51;;;;;;;4.78;2.47;;;19.10;1.00;;;;;;20820788;28;20044;-42
2023/06/10 05:14:13;;;;;;;6.63;2.78;;;19.30;1.00;;;;;;20820268;28;20036;-42
2023/06/10 05:24:34;;;;;;;7.28;2.70;;;19.40;1.00;;;;;;20811108;28;20041;-41
2023/06/10 05:34:55;;;;;;;5.78;2.78;;;19.70;1.00;;;;;;20817310;28;20064;-41
2023/06/10 05:45:17;;;;;;;8.30;3.17;;;19.80;1.00;;;;;;20826723;28;20080;-41
2023/06/10 05:55:38;;;;;;;9.40;3.50;;;20.00;1.00;;;;;;20820561;28;20099;-41
2023/06/10 06:05:59;;;;;;;6.68;2.55;;;20.20;1.00;;;;;;20817782;28;20507;-42
2023/06/10 06:16:21;;;;;;;5.53;3.08;;;20.40;1.00;;;;;;20823176;28;20091;-42
2023/06/10 06:26:42;;;;;;;7.88;3.13;;;20.60;1.00;;;;;;20821283;28;20522;-41
2023/06/10 06:37:04;;;;;;;5.55;2.92;;;20.90;1.00;;;;;;20818369;28;20040;-41
2023/06/10 06:47:26;;;;;;;5.22;2.78;;;21.10;1.00;;;;;;20820277;28;20602;-42
2023/06/10 06:57:47;;;;;;;6.38;3.22;;;21.40;1.00;;;;;;20815914;28;20534;-42
2023/06/10 07:08:09;;;;;;;5.18;2.88;;;21.70;1.00;;;;;;20808737;28;20040;-42
2023/06/10 07:18:30;;;;;;;4.38;2.30;;;22.10;1.00;;;;;;20825117;28;20539;-42
2023/06/10 07:28:52;;;;;;;8.50;2.92;;;22.40;1.00;;;;;;20837730;28;20116;-41
2023/06/10 07:39:13;;;;;;;6.70;2.65;;;22.70;1.00;;;;;;20834788;28;20131;-42
2023/06/10 07:49:34;;;;;;;5.78;2.78;;;22.90;1.00;;;;;;20825288;28;20129;-42
2023/06/10 07:59:57;;;;;;;7.45;2.92;;;23.00;1.00;;;;;;20816298;28;20540;-41
2023/06/10 08:10:18;;;;;;;6.47;2.85;;;23.30;1.00;;;;;;20824743;28;20072;-42
2023/06/10 08:20:40;;;;;;;6.05;2.72;;;23.50;1.00;;;;;;20835611;28;20443;-42
2023/06/10 08:31:01;;;;;;;7.18;2.90;;;23.60;1.00;;;;;;20838208;28;20131;-42
2023/06/10 08:41:28;;;;;;;5.28;3.20;;;23.90;1.00;;;;;;20828821;28;20534;-42
2023/06/10 08:51:57;;;;;;;4.72;2.75;;;24.30;1.00;;;;;;20842554;28;20324;-42
2023/06/10 09:02:20;;;;;;;5.53;2.80;;;24.60;1.00;;;;;;20829760;28;20321;-42
2023/06/10 09:12:41;;;;;;;4.72;2.55;;;25.20;1.00;;;;;;20833279;28;20041;-42
2023/06/10 09:23:03;;;;;;;5.60;2.55;;;25.50;1.00;;;;;;20826382;28;20085;-42
2023/06/10 09:33:26;;;;;;;6.15;3.00;;;25.90;1.00;;;;;;20834076;28;20091;-42
2023/06/10 09:43:49;;;;;;;5.70;3.25;;;26.20;1.00;;;;;;20837827;28;20040;-42
2023/06/10 09:54:10;;;;;;;4.00;2.55;;;26.60;1.00;;;;;;20832081;28;20067;-42
2023/06/10 10:04:34;;;;;;;5.07;3.10;;;27.00;1.00;;;;;;20831181;28;20036;-42
2023/06/10 10:14:56;;;;;;;5.05;3.05;;;27.30;1.00;;;;;;20829577;28;20037;-42
2023/06/10 10:25:25;;;;;;;4.38;2.17;;;27.70;1.00;;;;;;20831089;28;20048;-42
2023/06/10 10:35:47;;;;;;;5.05;3.13;;;27.70;1.00;;;;;;20829639;28;20271;-42
2023/06/10 10:46:17;;;;;;;4.30;2.53;;;28.00;1.00;;;;;;20825900;28;20107;-42
2023/06/10 10:56:38;;;;;;;5.03;2.85;;;28.30;1.00;;;;;;20832628;28;20107;-42
2023/06/10 11:07:06;;;;;;;4.28;2.78;;;28.50;1.00;;;;;;20845652;28;20048;-42
2023/06/10 11:17:28;;;;;;;6.57;2.40;;;28.90;1.00;;;;;;20837453;28;20037;-42
2023/06/10 11:27:51;;;;;;;4.88;2.50;;;29.00;1.00;;;;;;20843056;28;20048;-42
2023/06/10 11:38:13;;;;;;;8.13;3.00;;;29.00;1.00;;;;;;20848777;28;20547;-42
2023/06/10 11:48:35;;;;;;;4.65;2.45;;;29.30;1.00;;;;;;20832881;28;20199;-42
2023/06/10 11:58:58;;;;;;;5.32;2.70;;;29.70;1.00;;;;;;20831754;28;20103;-42
2023/06/10 12:09:21;;;;;;;3.95;2.30;;;29.70;1.00;;;;;;20839049;28;20212;-42
2023/06/10 12:19:42;;;;;;;4.78;2.47;;;29.70;1.00;;;;;;20834147;28;20068;-42
2023/06/10 12:30:05;;;;;;;5.40;3.00;;;30.10;1.00;;;;;;20829907;28;20057;-42
2023/06/10 12:40:28;;;;;;;5.47;2.83;;;30.00;1.00;;;;;;20835035;28;20084;-42
2023/06/10 12:50:54;;;;;;;8.70;2.72;;;30.10;1.00;;;;;;20828741;28;20044;-42
2023/06/10 13:01:16;;;;;;;3.43;2.23;;;30.30;1.00;;;;;;20828157;28;20049;-42
2023/06/10 13:11:37;;;;;;;4.03;2.55;;;30.40;1.00;;;;;;20839886;28;20048;-42
2023/06/10 13:21:59;;;;;;;4.40;2.35;;;30.80;1.00;;;;;;20832614;28;20037;-42
2023/06/10 13:32:20;;;;;;;10.85;3.03;;;31.10;1.00;;;;;;20827505;28;20163;-42
2023/06/10 13:42:42;;;;;;;5.32;2.53;;;31.10;1.00;;;;;;20834965;28;20374;-42
2023/06/10 13:53:03;;;;;;;6.57;2.80;;;30.90;1.00;;;;;;20834001;28;20591;-42
2023/06/10 14:03:24;;;;;;;5.40;2.70;;;30.80;1.00;;;;;;20825044;28;20037;-42
2023/06/10 14:13:46;;;;;;;3.38;2.47;;;30.80;1.00;;;;;;20811068;28;20383;-42
2023/06/10 14:24:07;;;;;;;4.47;2.42;;;30.70;1.00;;;;;;20839491;28;20048;-42
2023/06/10 14:34:33;;;;;;;4.50;2.72;;;30.60;1.00;;;;;;20846293;28;20051;-42
2023/06/10 14:44:54;;;;;;;3.67;2.10;;;30.40;1.00;;;;;;20834064;28;20102;-42
2023/06/10 14:55:16;;;;;;;3.58;2.20;;;30.30;1.00;;;;;;20848828;28;20689;-42
2023/06/10 15:05:37;;;;;;;3.80;2.00;;;30.30;1.00;;;;;;20838603;28;20033;-41
2023/06/10 15:15:58;;;;;;;4.38;2.15;;;30.10;1.00;;;;;;20839313;28;20071;-42
2023/06/10 15:26:20;;;;;;;4.38;2.25;;;30.20;1.00;;;;;;20847440;28;20379;-42
2023/06/10 15:36:41;;;;;;;4.15;2.70;;;30.00;1.00;;;;;;20833706;28;20052;-42
2023/06/10 15:47:03;;;;;;;6.35;2.50;;;29.90;1.00;;;;;;20835951;28;20045;-42
2023/06/10 15:57:24;;;;;;;5.18;2.53;;;29.80;1.00;;;;;;20835866;28;20068;-42
2023/06/10 16:07:46;;;;;;;3.45;2.50;;;29.70;1.00;;;;;;20827455;28;20528;-42
2023/06/10 16:18:07;;;;;;;6.40;2.75;;;29.60;1.00;;;;;;20841112;28;20048;-42
2023/06/10 16:28:28;;;;;;;4.15;2.40;;;29.40;1.00;;;;;;20827437;28;20237;-42
2023/06/10 16:38:50;;;;;;;4.10;2.60;;;29.30;1.00;;;;;;20835337;28;20080;-42
2023/06/10 16:49:11;;;;;;;4.97;2.50;;;29.30;1.00;;;;;;20828922;28;20052;-42
2023/06/10 16:59:33;;;;;;;6.53;3.00;;;29.10;1.00;;;;;;20833666;28;20110;-42
2023/06/10 17:09:55;;;;;;;4.00;2.10;;;28.90;1.00;;;;;;20840146;28;20103;-41
2023/06/10 17:20:16;;;;;;;5.18;2.10;;;28.70;1.00;;;;;;20825520;28;20321;-42
2023/06/10 17:30:38;;;;;;;3.90;2.17;;;28.60;1.00;;;;;;20827783;28;20048;-42
2023/06/10 17:40:59;;;;;;;4.65;2.25;;;28.50;1.00;;;;;;20828708;28;20056;-42
2023/06/10 17:51:20;;;;;;;3.88;1.90;;;28.30;1.00;;;;;;20835752;28;20611;-42
2023/06/10 18:01:42;;;;;;;3.00;1.75;;;28.10;1.00;;;;;;20824484;28;20083;-42
2023/06/10 18:12:03;;;;;;;4.45;2.35;;;28.00;1.00;;;;;;20831005;28;20037;-41
2023/06/10 18:22:25;;;;;;;4.15;2.22;;;27.70;1.00;;;;;;20825587;28;20152;-42
2023/06/10 18:32:46;;;;;;;2.90;1.90;;;27.50;1.00;;;;;;20830590;28;20143;-42
2023/06/10 18:43:07;;;;;;;4.13;2.22;;;27.30;1.00;;;;;;20825260;28;20496;-41
2023/06/10 18:53:29;;;;;;;3.97;1.83;;;27.10;1.00;;;;;;20827010;28;20409;-42
2023/06/10 19:03:50;;;;;;;5.88;2.20;;;26.80;1.00;;;;;;20812941;28;20068;-41
2023/06/10 19:14:11;;;;;;;5.68;2.58;;;26.40;1.00;;;;;;20832965;28;20473;-41
2023/06/10 19:24:33;;;;;;;3.42;1.90;;;25.80;1.00;;;;;;20829845;28;20512;-41
2023/06/10 19:34:54;;;;;;;4.70;2.20;;;25.40;1.00;;;;;;20835559;28;20128;-41
2023/06/10 19:45:16;;;;;;;4.25;2.30;;;25.10;1.00;;;;;;20829210;28;20045;-41
2023/06/10 19:55:37;;;;;;;5.70;2.13;;;24.80;1.00;;;;;;20834119;28;20040;-41
2023/06/10 20:05:58;;;;;;;4.60;2.10;;;24.50;1.00;;;;;;20834667;28;20036;-41
2023/06/10 20:16:20;;;;;;;3.38;1.85;;;24.30;1.00;;;;;;20823682;28;20123;-41
2023/06/10 20:26:41;;;;;;;4.63;2.05;;;24.20;1.00;;;;;;20826543;28;20061;-41
2023/06/10 20:37:03;;;;;;;4.20;1.92;;;23.90;1.00;;;;;;20829338;28;20405;-41
2023/06/10 20:47:25;;;;;;;3.55;2.22;;;23.70;1.00;;;;;;20822782;28;20048;-41
2023/06/10 20:57:46;;;;;;;4.13;2.28;;;23.40;1.00;;;;;;20822344;28;20068;-41
2023/06/10 21:08:07;;;;;;;4.53;2.25;;;23.10;1.00;;;;;;20822133;28;20060;-41
2023/06/10 21:18:31;;;;;;;5.00;2.30;;;22.90;1.00;;;;;;20821160;28;20048;-41
2023/06/10 21:28:54;;;;;;;4.15;2.30;;;22.60;1.00;;;;;;20823542;28;20043;-42
2023/06/10 21:39:15;;;;;;;3.83;2.30;;;22.40;1.00;;;;;;20822065;28;20129;-41
2023/06/10 21:49:36;;;;;;;4.07;2.58;;;22.20;1.00;;;;;;20838188;28;20556;-42
2023/06/10 21:59:58;;;;;;;4.57;2.38;;;22.00;1.00;;;;;;20823970;28;20198;-42
2023/06/10 22:10:19;;;;;;;5.88;2.00;;;21.90;1.00;;;;;;20824106;28;20629;-41
2023/06/10 22:20:41;;;;;;;6.22;2.10;;;21.80;1.00;;;;;;20819389;28;20817;-41
2023/06/10 22:31:02;;;;;;;4.20;2.30;;;21.70;1.00;;;;;;20812966;28;20140;-41
2023/06/10 22:41:23;;;;;;;3.53;2.03;;;21.50;1.00;;;;;;20826030;28;20048;-41
2023/06/10 22:51:46;;;;;;;3.67;2.30;;;21.40;1.00;;;;;;20845764;28;20425;-42
2023/06/10 23:02:07;;;;;;;3.55;2.17;;;21.10;1.00;;;;;;20825109;28;20267;-41
2023/06/10 23:12:28;;;;;;;3.75;2.42;;;21.00;1.00;;;;;;20830587;28;20440;-41
2023/06/10 23:22:51;;;;;;;3.92;2.22;;;20.90;1.00;;;;;;20828553;28;20347;-42
2023/06/10 23:33:13;;;;;;;4.32;2.50;;;20.80;1.00;;;;;;20831983;28;20079;-42
2023/06/10 23:43:34;;;;;;;7.18;2.83;;;20.60;1.00;;;;;;20828699;28;20119;-41
2023/06/10 23:53:55;;;;;;;4.57;2.42;;;20.40;1.00;;;;;;20816535;28;20040;-42
